sensor_id;sensor_type;location;lat;lon;timestamp;P1;durP1;ratioP1;P2;durP2;ratioP2
66472;SDS011;53291;51.680;8.344;2022-08-19T00:01:36;10.18;;;7.25;;
66472;SDS011;53291;51.680;8.344;2022-08-19T00:04:03;11.73;;;8.15;;
66472;SDS011;53291;51.680;8.344;2022-08-19T00:06:37;9.00;;;7.18;;
66472;SDS011;53291;51.680;8.344;2022-08-19T00:09:05;9.07;;;6.30;;
66472;SDS011;53291;51.680;8.344;2022-08-19T00:11:32;8.30;;;6.20;;
66472;SDS011;53291;51.680;8.344;2022-08-19T00:14:00;9.65;;;6.68;;
66472;SDS011;53291;51.680;8.344;2022-08-19T00:16:26;8.30;;;6.60;;
66472;SDS011;53291;51.680;8.344;2022-08-19T00:18:52;10.18;;;7.25;;
66472;SDS011;53291;51.680;8.344;2022-08-19T00:21:21;10.27;;;7.70;;
66472;SDS011;53291;51.680;8.344;2022-08-19T00:23:47;9.38;;;7.03;;
66472;SDS011;53291;51.680;8.344;2022-08-19T00:26:12;10.02;;;6.60;;
66472;SDS011;53291;51.680;8.344;2022-08-19T00:28:38;9.80;;;6.97;;
66472;SDS011;53291;51.680;8.344;2022-08-19T00:31:05;8.90;;;6.65;;
66472;SDS011;53291;51.680;8.344;2022-08-19T00:33:32;10.25;;;6.65;;
66472;SDS011;53291;51.680;8.344;2022-08-19T00:35:59;12.10;;;7.38;;
66472;SDS011;53291;51.680;8.344;2022-08-19T00:38:24;9.35;;;7.45;;
66472;SDS011;53291;51.680;8.344;2022-08-19T00:40:50;10.07;;;7.47;;
66472;SDS011;53291;51.680;8.344;2022-08-19T00:43:18;8.90;;;7.40;;
66472;SDS011;53291;51.680;8.344;2022-08-19T00:45:46;11.07;;;7.85;;
66472;SDS011;53291;51.680;8.344;2022-08-19T00:48:13;10.10;;;7.65;;
66472;SDS011;53291;51.680;8.344;2022-08-19T00:50:39;13.00;;;7.85;;
66472;SDS011;53291;51.680;8.344;2022-08-19T00:53:07;11.68;;;7.82;;
66472;SDS011;53291;51.680;8.344;2022-08-19T00:55:40;10.55;;;7.60;;
66472;SDS011;53291;51.680;8.344;2022-08-19T00:58:10;10.40;;;7.20;;
66472;SDS011;53291;51.680;8.344;2022-08-19T01:00:39;10.38;;;7.88;;
66472;SDS011;53291;51.680;8.344;2022-08-19T01:03:05;11.05;;;7.72;;
66472;SDS011;53291;51.680;8.344;2022-08-19T01:05:32;13.30;;;7.88;;
66472;SDS011;53291;51.680;8.344;2022-08-19T01:07:58;11.13;;;7.18;;
66472;SDS011;53291;51.680;8.344;2022-08-19T01:10:27;9.98;;;8.00;;
66472;SDS011;53291;51.680;8.344;2022-08-19T01:12:57;9.30;;;7.40;;
66472;SDS011;53291;51.680;8.344;2022-08-19T01:15:27;10.98;;;7.28;;
66472;SDS011;53291;51.680;8.344;2022-08-19T01:18:03;11.63;;;8.15;;
66472;SDS011;53291;51.680;8.344;2022-08-19T01:20:31;10.07;;;7.65;;
66472;SDS011;53291;51.680;8.344;2022-08-19T01:22:58;12.45;;;8.55;;
66472;SDS011;53291;51.680;8.344;2022-08-19T01:25:35;11.48;;;8.05;;
66472;SDS011;53291;51.680;8.344;2022-08-19T01:28:24;13.18;;;9.43;;
66472;SDS011;53291;51.680;8.344;2022-08-19T01:30:51;14.77;;;9.77;;
66472;SDS011;53291;51.680;8.344;2022-08-19T01:33:17;20.52;;;11.73;;
66472;SDS011;53291;51.680;8.344;2022-08-19T01:35:44;35.35;;;17.83;;
66472;SDS011;53291;51.680;8.344;2022-08-19T01:38:10;24.83;;;14.73;;
66472;SDS011;53291;51.680;8.344;2022-08-19T01:40:45;18.67;;;10.63;;
66472;SDS011;53291;51.680;8.344;2022-08-19T01:43:10;17.20;;;10.60;;
66472;SDS011;53291;51.680;8.344;2022-08-19T01:45:36;19.73;;;11.05;;
66472;SDS011;53291;51.680;8.344;2022-08-19T01:48:04;18.95;;;11.55;;
66472;SDS011;53291;51.680;8.344;2022-08-19T01:50:30;18.63;;;10.43;;
66472;SDS011;53291;51.680;8.344;2022-08-19T01:52:57;19.55;;;10.57;;
66472;SDS011;53291;51.680;8.344;2022-08-19T01:55:24;15.50;;;9.70;;
66472;SDS011;53291;51.680;8.344;2022-08-19T01:57:54;15.00;;;9.63;;
66472;SDS011;53291;51.680;8.344;2022-08-19T02:00:22;14.55;;;8.90;;
66472;SDS011;53291;51.680;8.344;2022-08-19T02:02:49;13.82;;;9.88;;
66472;SDS011;53291;51.680;8.344;2022-08-19T02:05:14;17.33;;;11.35;;
66472;SDS011;53291;51.680;8.344;2022-08-19T02:07:41;17.60;;;11.07;;
66472;SDS011;53291;51.680;8.344;2022-08-19T02:10:08;16.60;;;10.00;;
66472;SDS011;53291;51.680;8.344;2022-08-19T02:12:35;14.15;;;9.43;;
66472;SDS011;53291;51.680;8.344;2022-08-19T02:15:02;13.70;;;8.98;;
66472;SDS011;53291;51.680;8.344;2022-08-19T02:17:28;13.93;;;9.25;;
66472;SDS011;53291;51.680;8.344;2022-08-19T02:19:57;14.65;;;9.60;;
66472;SDS011;53291;51.680;8.344;2022-08-19T02:22:23;13.95;;;9.95;;
66472;SDS011;53291;51.680;8.344;2022-08-19T02:24:50;16.30;;;10.52;;
66472;SDS011;53291;51.680;8.344;2022-08-19T02:27:16;12.48;;;9.68;;
66472;SDS011;53291;51.680;8.344;2022-08-19T02:29:42;12.88;;;8.93;;
66472;SDS011;53291;51.680;8.344;2022-08-19T02:32:08;13.63;;;8.95;;
66472;SDS011;53291;51.680;8.344;2022-08-19T02:34:33;14.60;;;9.23;;
66472;SDS011;53291;51.680;8.344;2022-08-19T02:36:59;13.48;;;9.65;;
66472;SDS011;53291;51.680;8.344;2022-08-19T02:39:24;14.23;;;9.40;;
66472;SDS011;53291;51.680;8.344;2022-08-19T02:41:51;14.13;;;9.18;;
66472;SDS011;53291;51.680;8.344;2022-08-19T02:44:17;14.85;;;10.13;;
66472;SDS011;53291;51.680;8.344;2022-08-19T02:46:44;15.45;;;9.95;;
66472;SDS011;53291;51.680;8.344;2022-08-19T02:49:11;13.65;;;10.25;;
66472;SDS011;53291;51.680;8.344;2022-08-19T02:51:40;15.05;;;9.82;;
66472;SDS011;53291;51.680;8.344;2022-08-19T02:54:08;14.20;;;10.48;;
66472;SDS011;53291;51.680;8.344;2022-08-19T02:56:34;16.13;;;10.95;;
66472;SDS011;53291;51.680;8.344;2022-08-19T02:59:01;16.58;;;11.05;;
66472;SDS011;53291;51.680;8.344;2022-08-19T03:01:29;17.30;;;11.90;;
66472;SDS011;53291;51.680;8.344;2022-08-19T03:03:57;19.05;;;12.50;;
66472;SDS011;53291;51.680;8.344;2022-08-19T03:06:24;15.38;;;11.32;;
66472;SDS011;53291;51.680;8.344;2022-08-19T03:08:50;16.45;;;11.63;;
66472;SDS011;53291;51.680;8.344;2022-08-19T03:11:17;18.30;;;12.73;;
66472;SDS011;53291;51.680;8.344;2022-08-19T03:14:02;18.40;;;13.05;;
66472;SDS011;53291;51.680;8.344;2022-08-19T03:16:30;18.60;;;13.65;;
66472;SDS011;53291;51.680;8.344;2022-08-19T03:21:25;18.92;;;12.68;;
66472;SDS011;53291;51.680;8.344;2022-08-19T03:23:56;18.40;;;13.40;;
66472;SDS011;53291;51.680;8.344;2022-08-19T03:26:23;22.73;;;13.43;;
66472;SDS011;53291;51.680;8.344;2022-08-19T03:28:48;19.75;;;14.13;;
66472;SDS011;53291;51.680;8.344;2022-08-19T03:31:16;19.90;;;13.73;;
66472;SDS011;53291;51.680;8.344;2022-08-19T03:33:47;19.70;;;13.82;;
66472;SDS011;53291;51.680;8.344;2022-08-19T03:36:18;23.10;;;15.57;;
66472;SDS011;53291;51.680;8.344;2022-08-19T03:38:47;21.60;;;13.80;;
66472;SDS011;53291;51.680;8.344;2022-08-19T03:41:19;22.35;;;14.93;;
66472;SDS011;53291;51.680;8.344;2022-08-19T03:43:49;19.88;;;14.98;;
66472;SDS011;53291;51.680;8.344;2022-08-19T03:46:18;22.65;;;15.00;;
66472;SDS011;53291;51.680;8.344;2022-08-19T03:48:47;21.77;;;14.73;;
66472;SDS011;53291;51.680;8.344;2022-08-19T03:51:20;20.77;;;14.57;;
66472;SDS011;53291;51.680;8.344;2022-08-19T03:53:56;22.77;;;14.10;;
66472;SDS011;53291;51.680;8.344;2022-08-19T03:56:24;23.38;;;15.77;;
66472;SDS011;53291;51.680;8.344;2022-08-19T03:58:53;23.30;;;14.48;;
66472;SDS011;53291;51.680;8.344;2022-08-19T04:01:20;22.83;;;15.77;;
66472;SDS011;53291;51.680;8.344;2022-08-19T04:03:48;23.48;;;16.50;;
66472;SDS011;53291;51.680;8.344;2022-08-19T04:06:21;25.15;;;17.13;;
66472;SDS011;53291;51.680;8.344;2022-08-19T04:08:49;22.90;;;15.65;;
66472;SDS011;53291;51.680;8.344;2022-08-19T04:11:17;24.55;;;16.45;;
66472;SDS011;53291;51.680;8.344;2022-08-19T04:13:46;26.88;;;17.08;;
66472;SDS011;53291;51.680;8.344;2022-08-19T04:16:12;24.55;;;16.25;;
66472;SDS011;53291;51.680;8.344;2022-08-19T04:18:38;25.88;;;16.25;;
66472;SDS011;53291;51.680;8.344;2022-08-19T04:21:04;24.70;;;16.42;;
66472;SDS011;53291;51.680;8.344;2022-08-19T04:23:30;25.92;;;17.08;;
66472;SDS011;53291;51.680;8.344;2022-08-19T04:25:56;27.05;;;18.40;;
66472;SDS011;53291;51.680;8.344;2022-08-19T04:28:22;26.50;;;18.38;;
66472;SDS011;53291;51.680;8.344;2022-08-19T04:30:49;27.67;;;17.55;;
66472;SDS011;53291;51.680;8.344;2022-08-19T04:33:17;26.08;;;16.88;;
66472;SDS011;53291;51.680;8.344;2022-08-19T04:35:46;34.85;;;17.52;;
66472;SDS011;53291;51.680;8.344;2022-08-19T04:38:13;25.80;;;16.02;;
66472;SDS011;53291;51.680;8.344;2022-08-19T04:40:40;29.27;;;18.00;;
66472;SDS011;53291;51.680;8.344;2022-08-19T04:43:26;27.50;;;17.73;;
66472;SDS011;53291;51.680;8.344;2022-08-19T04:45:52;26.77;;;16.85;;
66472;SDS011;53291;51.680;8.344;2022-08-19T04:48:18;28.77;;;17.90;;
66472;SDS011;53291;51.680;8.344;2022-08-19T04:50:54;26.70;;;16.08;;
66472;SDS011;53291;51.680;8.344;2022-08-19T04:53:28;26.15;;;16.48;;
66472;SDS011;53291;51.680;8.344;2022-08-19T04:55:58;26.98;;;17.45;;
66472;SDS011;53291;51.680;8.344;2022-08-19T04:58:27;27.48;;;17.35;;
66472;SDS011;53291;51.680;8.344;2022-08-19T05:00:52;25.42;;;16.60;;
66472;SDS011;53291;51.680;8.344;2022-08-19T05:03:18;30.17;;;17.75;;
66472;SDS011;53291;51.680;8.344;2022-08-19T05:05:44;28.23;;;17.10;;
66472;SDS011;53291;51.680;8.344;2022-08-19T05:08:13;25.30;;;16.98;;
66472;SDS011;53291;51.680;8.344;2022-08-19T05:10:44;27.80;;;17.38;;
66472;SDS011;53291;51.680;8.344;2022-08-19T05:13:10;28.50;;;17.85;;
66472;SDS011;53291;51.680;8.344;2022-08-19T05:15:35;30.15;;;17.35;;
66472;SDS011;53291;51.680;8.344;2022-08-19T05:18:01;27.23;;;17.38;;
66472;SDS011;53291;51.680;8.344;2022-08-19T05:20:45;26.77;;;16.58;;
66472;SDS011;53291;51.680;8.344;2022-08-19T05:23:29;24.85;;;16.65;;
66472;SDS011;53291;51.680;8.344;2022-08-19T05:25:54;24.35;;;16.08;;
66472;SDS011;53291;51.680;8.344;2022-08-19T05:28:19;24.77;;;16.90;;
66472;SDS011;53291;51.680;8.344;2022-08-19T05:30:45;25.55;;;17.65;;
66472;SDS011;53291;51.680;8.344;2022-08-19T05:33:11;26.80;;;17.40;;
66472;SDS011;53291;51.680;8.344;2022-08-19T05:35:40;27.60;;;17.67;;
66472;SDS011;53291;51.680;8.344;2022-08-19T05:38:06;24.55;;;16.08;;
66472;SDS011;53291;51.680;8.344;2022-08-19T05:40:36;28.17;;;18.10;;
66472;SDS011;53291;51.680;8.344;2022-08-19T05:43:03;28.20;;;17.33;;
66472;SDS011;53291;51.680;8.344;2022-08-19T05:45:30;26.38;;;17.55;;
66472;SDS011;53291;51.680;8.344;2022-08-19T05:47:55;25.40;;;16.98;;
66472;SDS011;53291;51.680;8.344;2022-08-19T05:50:21;26.13;;;16.83;;
66472;SDS011;53291;51.680;8.344;2022-08-19T05:52:47;25.92;;;16.20;;
66472;SDS011;53291;51.680;8.344;2022-08-19T05:55:12;27.38;;;18.55;;
66472;SDS011;53291;51.680;8.344;2022-08-19T05:57:38;28.25;;;17.63;;
66472;SDS011;53291;51.680;8.344;2022-08-19T06:00:04;25.23;;;17.65;;
66472;SDS011;53291;51.680;8.344;2022-08-19T06:02:34;28.50;;;17.85;;
66472;SDS011;53291;51.680;8.344;2022-08-19T06:05:00;27.58;;;17.00;;
66472;SDS011;53291;51.680;8.344;2022-08-19T06:07:27;28.55;;;17.23;;
66472;SDS011;53291;51.680;8.344;2022-08-19T06:09:53;26.85;;;17.10;;
66472;SDS011;53291;51.680;8.344;2022-08-19T06:12:19;28.67;;;17.80;;
66472;SDS011;53291;51.680;8.344;2022-08-19T06:14:44;27.40;;;17.98;;
66472;SDS011;53291;51.680;8.344;2022-08-19T06:17:09;27.60;;;18.30;;
66472;SDS011;53291;51.680;8.344;2022-08-19T06:19:36;29.05;;;17.67;;
66472;SDS011;53291;51.680;8.344;2022-08-19T06:22:02;30.52;;;17.83;;
66472;SDS011;53291;51.680;8.344;2022-08-19T06:24:29;26.80;;;17.27;;
66472;SDS011;53291;51.680;8.344;2022-08-19T06:26:55;28.10;;;17.55;;
66472;SDS011;53291;51.680;8.344;2022-08-19T06:29:23;29.38;;;18.67;;
66472;SDS011;53291;51.680;8.344;2022-08-19T06:31:51;28.42;;;17.98;;
66472;SDS011;53291;51.680;8.344;2022-08-19T06:36:45;29.63;;;17.33;;
66472;SDS011;53291;51.680;8.344;2022-08-19T06:39:14;30.98;;;17.55;;
66472;SDS011;53291;51.680;8.344;2022-08-19T06:41:49;27.17;;;17.42;;
66472;SDS011;53291;51.680;8.344;2022-08-19T06:44:18;25.25;;;18.05;;
66472;SDS011;53291;51.680;8.344;2022-08-19T06:46:44;29.23;;;18.75;;
66472;SDS011;53291;51.680;8.344;2022-08-19T06:49:10;27.30;;;17.52;;
66472;SDS011;53291;51.680;8.344;2022-08-19T06:51:39;27.55;;;17.58;;
66472;SDS011;53291;51.680;8.344;2022-08-19T06:54:08;24.50;;;16.77;;
66472;SDS011;53291;51.680;8.344;2022-08-19T06:56:34;27.65;;;17.27;;
66472;SDS011;53291;51.680;8.344;2022-08-19T06:59:03;25.95;;;16.73;;
66472;SDS011;53291;51.680;8.344;2022-08-19T07:01:31;27.55;;;16.45;;
66472;SDS011;53291;51.680;8.344;2022-08-19T07:03:59;25.90;;;15.52;;
66472;SDS011;53291;51.680;8.344;2022-08-19T07:06:27;26.23;;;16.23;;
66472;SDS011;53291;51.680;8.344;2022-08-19T07:08:52;24.95;;;14.77;;
66472;SDS011;53291;51.680;8.344;2022-08-19T07:11:18;22.10;;;15.23;;
66472;SDS011;53291;51.680;8.344;2022-08-19T07:13:44;23.15;;;14.35;;
66472;SDS011;53291;51.680;8.344;2022-08-19T07:16:12;23.13;;;15.60;;
66472;SDS011;53291;51.680;8.344;2022-08-19T07:18:39;21.52;;;14.48;;
66472;SDS011;53291;51.680;8.344;2022-08-19T07:21:15;22.80;;;14.65;;
66472;SDS011;53291;51.680;8.344;2022-08-19T07:23:43;23.20;;;14.57;;
66472;SDS011;53291;51.680;8.344;2022-08-19T07:26:10;21.98;;;15.05;;
66472;SDS011;53291;51.680;8.344;2022-08-19T07:28:41;21.95;;;14.48;;
66472;SDS011;53291;51.680;8.344;2022-08-19T07:31:08;22.02;;;14.20;;
66472;SDS011;53291;51.680;8.344;2022-08-19T07:33:36;19.35;;;13.50;;
66472;SDS011;53291;51.680;8.344;2022-08-19T07:36:03;18.40;;;12.48;;
66472;SDS011;53291;51.680;8.344;2022-08-19T07:38:30;18.10;;;10.15;;
66472;SDS011;53291;51.680;8.344;2022-08-19T07:40:56;15.13;;;11.10;;
66472;SDS011;53291;51.680;8.344;2022-08-19T07:43:21;15.73;;;10.50;;
66472;SDS011;53291;51.680;8.344;2022-08-19T07:45:50;12.93;;;9.05;;
66472;SDS011;53291;51.680;8.344;2022-08-19T07:48:18;13.77;;;10.57;;
66472;SDS011;53291;51.680;8.344;2022-08-19T07:50:44;11.18;;;8.30;;
66472;SDS011;53291;51.680;8.344;2022-08-19T07:53:09;13.27;;;9.60;;
66472;SDS011;53291;51.680;8.344;2022-08-19T07:55:36;10.27;;;8.30;;
66472;SDS011;53291;51.680;8.344;2022-08-19T07:58:02;10.73;;;7.75;;
66472;SDS011;53291;51.680;8.344;2022-08-19T08:00:29;11.45;;;8.68;;
66472;SDS011;53291;51.680;8.344;2022-08-19T08:02:55;10.15;;;8.30;;
66472;SDS011;53291;51.680;8.344;2022-08-19T08:05:20;9.70;;;7.95;;
66472;SDS011;53291;51.680;8.344;2022-08-19T08:08:04;9.38;;;7.10;;
66472;SDS011;53291;51.680;8.344;2022-08-19T08:10:48;10.15;;;7.53;;
66472;SDS011;53291;51.680;8.344;2022-08-19T08:13:15;10.00;;;7.88;;
66472;SDS011;53291;51.680;8.344;2022-08-19T08:15:41;9.43;;;7.30;;
66472;SDS011;53291;51.680;8.344;2022-08-19T08:18:06;9.82;;;6.88;;
66472;SDS011;53291;51.680;8.344;2022-08-19T08:20:32;12.13;;;8.13;;
66472;SDS011;53291;51.680;8.344;2022-08-19T08:22:58;10.98;;;7.72;;
66472;SDS011;53291;51.680;8.344;2022-08-19T08:25:42;10.70;;;7.35;;
66472;SDS011;53291;51.680;8.344;2022-08-19T08:28:07;8.88;;;6.30;;
66472;SDS011;53291;51.680;8.344;2022-08-19T08:30:34;9.20;;;6.45;;
66472;SDS011;53291;51.680;8.344;2022-08-19T08:33:01;8.77;;;6.38;;
66472;SDS011;53291;51.680;8.344;2022-08-19T08:35:26;10.55;;;7.15;;
66472;SDS011;53291;51.680;8.344;2022-08-19T08:37:53;10.73;;;6.65;;
66472;SDS011;53291;51.680;8.344;2022-08-19T08:40:28;9.02;;;7.38;;
66472;SDS011;53291;51.680;8.344;2022-08-19T08:45:29;8.80;;;6.13;;
66472;SDS011;53291;51.680;8.344;2022-08-19T08:47:56;8.48;;;6.60;;
66472;SDS011;53291;51.680;8.344;2022-08-19T08:50:31;7.15;;;5.82;;
66472;SDS011;53291;51.680;8.344;2022-08-19T08:53:01;6.80;;;6.00;;
66472;SDS011;53291;51.680;8.344;2022-08-19T08:55:29;6.93;;;5.28;;
66472;SDS011;53291;51.680;8.344;2022-08-19T08:57:58;10.10;;;6.18;;
66472;SDS011;53291;51.680;8.344;2022-08-19T09:00:51;9.30;;;5.88;;
66472;SDS011;53291;51.680;8.344;2022-08-19T09:03:21;5.95;;;5.28;;
66472;SDS011;53291;51.680;8.344;2022-08-19T09:05:56;5.47;;;4.15;;
66472;SDS011;53291;51.680;8.344;2022-08-19T09:08:35;6.07;;;5.03;;
66472;SDS011;53291;51.680;8.344;2022-08-19T09:11:09;5.70;;;4.72;;
66472;SDS011;53291;51.680;8.344;2022-08-19T09:13:58;6.50;;;4.40;;
66472;SDS011;53291;51.680;8.344;2022-08-19T09:16:35;6.78;;;5.45;;
66472;SDS011;53291;51.680;8.344;2022-08-19T09:19:03;6.72;;;5.45;;
66472;SDS011;53291;51.680;8.344;2022-08-19T09:21:31;6.50;;;5.68;;
66472;SDS011;53291;51.680;8.344;2022-08-19T09:23:57;8.68;;;6.30;;
66472;SDS011;53291;51.680;8.344;2022-08-19T09:26:23;6.68;;;5.13;;
66472;SDS011;53291;51.680;8.344;2022-08-19T09:28:50;8.52;;;5.65;;
66472;SDS011;53291;51.680;8.344;2022-08-19T09:31:22;7.95;;;6.55;;
66472;SDS011;53291;51.680;8.344;2022-08-19T09:33:49;8.15;;;6.38;;
66472;SDS011;53291;51.680;8.344;2022-08-19T09:36:16;8.63;;;6.75;;
66472;SDS011;53291;51.680;8.344;2022-08-19T09:38:43;8.52;;;6.60;;
66472;SDS011;53291;51.680;8.344;2022-08-19T09:41:11;8.55;;;6.10;;
66472;SDS011;53291;51.680;8.344;2022-08-19T09:43:39;8.43;;;5.75;;
66472;SDS011;53291;51.680;8.344;2022-08-19T09:46:06;5.72;;;4.60;;
66472;SDS011;53291;51.680;8.344;2022-08-19T09:48:34;5.43;;;4.20;;
66472;SDS011;53291;51.680;8.344;2022-08-19T09:51:06;7.80;;;4.88;;
66472;SDS011;53291;51.680;8.344;2022-08-19T09:53:42;5.93;;;4.38;;
66472;SDS011;53291;51.680;8.344;2022-08-19T09:56:09;7.40;;;4.57;;
66472;SDS011;53291;51.680;8.344;2022-08-19T09:58:35;5.32;;;3.85;;
66472;SDS011;53291;51.680;8.344;2022-08-19T10:01:02;6.57;;;5.20;;
66472;SDS011;53291;51.680;8.344;2022-08-19T10:03:30;4.75;;;4.18;;
66472;SDS011;53291;51.680;8.344;2022-08-19T10:05:56;6.28;;;5.68;;
66472;SDS011;53291;51.680;8.344;2022-08-19T10:08:36;6.18;;;4.78;;
66472;SDS011;53291;51.680;8.344;2022-08-19T10:11:02;6.28;;;5.53;;
66472;SDS011;53291;51.680;8.344;2022-08-19T10:13:30;7.78;;;6.40;;
66472;SDS011;53291;51.680;8.344;2022-08-19T10:16:02;6.15;;;5.55;;
66472;SDS011;53291;51.680;8.344;2022-08-19T10:18:33;6.45;;;5.85;;
66472;SDS011;53291;51.680;8.344;2022-08-19T10:23:56;6.75;;;5.03;;
66472;SDS011;53291;51.680;8.344;2022-08-19T10:26:26;6.20;;;5.60;;
66472;SDS011;53291;51.680;8.344;2022-08-19T10:28:53;6.63;;;5.30;;
66472;SDS011;53291;51.680;8.344;2022-08-19T10:31:21;6.32;;;5.57;;
66472;SDS011;53291;51.680;8.344;2022-08-19T10:33:48;5.18;;;4.70;;
66472;SDS011;53291;51.680;8.344;2022-08-19T10:36:19;6.07;;;5.47;;
66472;SDS011;53291;51.680;8.344;2022-08-19T10:38:48;5.95;;;5.43;;
66472;SDS011;53291;51.680;8.344;2022-08-19T10:41:17;6.50;;;5.30;;
66472;SDS011;53291;51.680;8.344;2022-08-19T10:43:53;7.47;;;5.18;;
66472;SDS011;53291;51.680;8.344;2022-08-19T10:46:20;5.45;;;4.50;;
66472;SDS011;53291;51.680;8.344;2022-08-19T10:48:47;4.95;;;4.55;;
66472;SDS011;53291;51.680;8.344;2022-08-19T10:51:12;5.22;;;4.72;;
66472;SDS011;53291;51.680;8.344;2022-08-19T10:53:56;5.10;;;4.60;;
66472;SDS011;53291;51.680;8.344;2022-08-19T10:56:23;5.60;;;5.00;;
66472;SDS011;53291;51.680;8.344;2022-08-19T10:59:08;5.20;;;4.53;;
66472;SDS011;53291;51.680;8.344;2022-08-19T11:01:34;5.85;;;5.20;;
66472;SDS011;53291;51.680;8.344;2022-08-19T11:04:01;5.97;;;5.38;;
66472;SDS011;53291;51.680;8.344;2022-08-19T11:06:28;5.78;;;4.93;;
66472;SDS011;53291;51.680;8.344;2022-08-19T11:08:55;4.85;;;4.40;;
66472;SDS011;53291;51.680;8.344;2022-08-19T11:11:21;6.13;;;5.53;;
66472;SDS011;53291;51.680;8.344;2022-08-19T11:13:47;4.55;;;4.15;;
66472;SDS011;53291;51.680;8.344;2022-08-19T11:16:18;5.07;;;4.55;;
66472;SDS011;53291;51.680;8.344;2022-08-19T11:18:50;4.53;;;4.13;;
66472;SDS011;53291;51.680;8.344;2022-08-19T11:21:18;5.47;;;4.97;;
66472;SDS011;53291;51.680;8.344;2022-08-19T11:23:48;5.35;;;4.85;;
66472;SDS011;53291;51.680;8.344;2022-08-19T11:26:16;5.78;;;5.28;;
66472;SDS011;53291;51.680;8.344;2022-08-19T11:28:44;5.80;;;5.20;;
66472;SDS011;53291;51.680;8.344;2022-08-19T11:31:11;4.47;;;4.07;;
66472;SDS011;53291;51.680;8.344;2022-08-19T11:33:37;5.15;;;4.65;;
66472;SDS011;53291;51.680;8.344;2022-08-19T11:36:03;5.03;;;4.53;;
66472;SDS011;53291;51.680;8.344;2022-08-19T11:38:28;6.32;;;5.18;;
66472;SDS011;53291;51.680;8.344;2022-08-19T11:40:59;5.68;;;3.90;;
66472;SDS011;53291;51.680;8.344;2022-08-19T11:43:25;4.97;;;3.75;;
66472;SDS011;53291;51.680;8.344;2022-08-19T11:45:55;4.75;;;4.25;;
66472;SDS011;53291;51.680;8.344;2022-08-19T11:48:21;5.20;;;3.72;;
66472;SDS011;53291;51.680;8.344;2022-08-19T11:50:51;4.47;;;3.75;;
66472;SDS011;53291;51.680;8.344;2022-08-19T11:53:21;5.18;;;3.50;;
66472;SDS011;53291;51.680;8.344;2022-08-19T11:55:47;5.95;;;4.00;;
66472;SDS011;53291;51.680;8.344;2022-08-19T11:58:12;3.88;;;3.20;;
66472;SDS011;53291;51.680;8.344;2022-08-19T12:00:39;4.75;;;3.50;;
66472;SDS011;53291;51.680;8.344;2022-08-19T12:03:05;4.88;;;3.53;;
66472;SDS011;53291;51.680;8.344;2022-08-19T12:05:31;4.78;;;3.28;;
66472;SDS011;53291;51.680;8.344;2022-08-19T12:07:56;3.85;;;3.13;;
66472;SDS011;53291;51.680;8.344;2022-08-19T12:10:22;3.78;;;2.65;;
66472;SDS011;53291;51.680;8.344;2022-08-19T12:12:48;4.22;;;3.60;;
66472;SDS011;53291;51.680;8.344;2022-08-19T12:15:13;4.28;;;2.78;;
66472;SDS011;53291;51.680;8.344;2022-08-19T12:17:39;3.80;;;3.28;;
66472;SDS011;53291;51.680;8.344;2022-08-19T12:20:07;5.30;;;3.22;;
66472;SDS011;53291;51.680;8.344;2022-08-19T12:22:34;5.18;;;3.03;;
66472;SDS011;53291;51.680;8.344;2022-08-19T12:25:00;6.13;;;3.92;;
66472;SDS011;53291;51.680;8.344;2022-08-19T12:27:26;3.95;;;2.60;;
66472;SDS011;53291;51.680;8.344;2022-08-19T12:29:51;4.30;;;3.90;;
66472;SDS011;53291;51.680;8.344;2022-08-19T12:32:17;4.70;;;3.95;;
66472;SDS011;53291;51.680;8.344;2022-08-19T12:34:42;5.00;;;3.13;;
66472;SDS011;53291;51.680;8.344;2022-08-19T12:37:08;4.68;;;3.33;;
66472;SDS011;53291;51.680;8.344;2022-08-19T12:39:38;4.13;;;3.00;;
66472;SDS011;53291;51.680;8.344;2022-08-19T12:42:05;4.25;;;3.85;;
66472;SDS011;53291;51.680;8.344;2022-08-19T12:44:30;5.05;;;3.22;;
66472;SDS011;53291;51.680;8.344;2022-08-19T12:46:57;3.70;;;3.00;;
66472;SDS011;53291;51.680;8.344;2022-08-19T12:49:23;4.28;;;3.30;;
66472;SDS011;53291;51.680;8.344;2022-08-19T12:51:49;4.00;;;3.03;;
66472;SDS011;53291;51.680;8.344;2022-08-19T12:54:15;5.63;;;4.10;;
66472;SDS011;53291;51.680;8.344;2022-08-19T12:56:40;3.70;;;2.78;;
66472;SDS011;53291;51.680;8.344;2022-08-19T12:59:07;5.05;;;4.30;;
66472;SDS011;53291;51.680;8.344;2022-08-19T13:01:33;3.28;;;2.75;;
66472;SDS011;53291;51.680;8.344;2022-08-19T13:03:59;4.03;;;2.90;;
66472;SDS011;53291;51.680;8.344;2022-08-19T13:06:25;4.85;;;3.40;;
66472;SDS011;53291;51.680;8.344;2022-08-19T13:08:51;4.72;;;3.33;;
66472;SDS011;53291;51.680;8.344;2022-08-19T13:11:17;4.50;;;3.47;;
66472;SDS011;53291;51.680;8.344;2022-08-19T13:13:45;4.25;;;3.30;;
66472;SDS011;53291;51.680;8.344;2022-08-19T13:16:12;4.15;;;3.40;;
66472;SDS011;53291;51.680;8.344;2022-08-19T13:18:39;3.78;;;2.80;;
66472;SDS011;53291;51.680;8.344;2022-08-19T13:21:07;3.47;;;2.63;;
66472;SDS011;53291;51.680;8.344;2022-08-19T13:23:34;4.55;;;3.28;;
66472;SDS011;53291;51.680;8.344;2022-08-19T13:26:01;4.65;;;3.60;;
66472;SDS011;53291;51.680;8.344;2022-08-19T13:28:29;6.00;;;3.47;;
66472;SDS011;53291;51.680;8.344;2022-08-19T13:31:16;4.80;;;3.13;;
66472;SDS011;53291;51.680;8.344;2022-08-19T13:34:05;4.90;;;2.85;;
66472;SDS011;53291;51.680;8.344;2022-08-19T13:36:35;5.25;;;4.30;;
66472;SDS011;53291;51.680;8.344;2022-08-19T13:39:01;4.47;;;3.22;;
66472;SDS011;53291;51.680;8.344;2022-08-19T13:41:26;4.10;;;2.92;;
66472;SDS011;53291;51.680;8.344;2022-08-19T13:43:52;5.25;;;3.35;;
66472;SDS011;53291;51.680;8.344;2022-08-19T13:46:19;4.90;;;2.72;;
66472;SDS011;53291;51.680;8.344;2022-08-19T13:48:45;3.67;;;2.40;;
66472;SDS011;53291;51.680;8.344;2022-08-19T13:51:11;4.53;;;3.50;;
66472;SDS011;53291;51.680;8.344;2022-08-19T13:53:37;4.13;;;3.03;;
66472;SDS011;53291;51.680;8.344;2022-08-19T13:56:06;4.28;;;2.90;;
66472;SDS011;53291;51.680;8.344;2022-08-19T13:58:34;4.88;;;3.00;;
66472;SDS011;53291;51.680;8.344;2022-08-19T14:00:59;3.92;;;2.75;;
66472;SDS011;53291;51.680;8.344;2022-08-19T14:03:25;3.83;;;3.17;;
66472;SDS011;53291;51.680;8.344;2022-08-19T14:05:52;4.43;;;2.80;;
66472;SDS011;53291;51.680;8.344;2022-08-19T14:08:17;5.13;;;3.15;;
66472;SDS011;53291;51.680;8.344;2022-08-19T14:10:43;4.53;;;2.70;;
66472;SDS011;53291;51.680;8.344;2022-08-19T14:13:12;5.03;;;2.95;;
66472;SDS011;53291;51.680;8.344;2022-08-19T14:15:40;3.70;;;2.47;;
66472;SDS011;53291;51.680;8.344;2022-08-19T14:18:06;4.55;;;2.95;;
66472;SDS011;53291;51.680;8.344;2022-08-19T14:20:33;3.90;;;3.60;;
66472;SDS011;53291;51.680;8.344;2022-08-19T14:23:02;5.15;;;3.58;;
66472;SDS011;53291;51.680;8.344;2022-08-19T14:25:29;4.68;;;2.85;;
66472;SDS011;53291;51.680;8.344;2022-08-19T14:27:55;4.22;;;3.83;;
66472;SDS011;53291;51.680;8.344;2022-08-19T14:30:26;4.22;;;2.75;;
66472;SDS011;53291;51.680;8.344;2022-08-19T14:32:53;4.82;;;3.00;;
66472;SDS011;53291;51.680;8.344;2022-08-19T14:35:20;5.07;;;3.50;;
66472;SDS011;53291;51.680;8.344;2022-08-19T14:37:47;5.30;;;3.95;;
66472;SDS011;53291;51.680;8.344;2022-08-19T14:40:14;3.97;;;3.10;;
66472;SDS011;53291;51.680;8.344;2022-08-19T14:42:43;4.95;;;4.05;;
66472;SDS011;53291;51.680;8.344;2022-08-19T14:45:09;4.25;;;3.38;;
66472;SDS011;53291;51.680;8.344;2022-08-19T14:47:36;4.35;;;3.13;;
66472;SDS011;53291;51.680;8.344;2022-08-19T14:50:03;6.00;;;4.40;;
66472;SDS011;53291;51.680;8.344;2022-08-19T14:52:31;4.70;;;3.10;;